Huvudsida
METAR-TAF:

METAR-TAF

Flygplatser :

Vasa, Finland

Vasa flygplats

latitud: 63-03N, longitud: 021-46E, höjd: 4 m

Aktuellt väderrapport

Denna rapport gjordes för 27 minuter sedan, klockan 10:20 UTC
Vind 8 kt från ost/sydost
Temperatur -8°C
Fuktighet 79%
Tryck 1000 hPa
Sikt 10 km eller mer
lätt snö

METAR: EFVA 171020Z AUTO 12008KT 9999 -SN FEW021/// OVC086/// M08/M11 Q1000

Tid: 12:47 (10:47 UTC)

Väderprognos

Denna rapport gjordes för 2 timmar och 11 minuter sedan, klockan 08:36 UTC
Prognos gäller från 17 kl. 09 UTC till 18 kl. 09 UTC
Vind 9 kt från ost/sydost
Sikt 10 km eller mer
Inga moln under 1 500 m eller inga cumulonimbus
Temporärt
från 17 kl. 15 UTC till 17 kl. 24 UTC
Sikt: 6000 m
lätt snö
Temporärt
från 18 kl. 00 UTC till 18 kl. 09 UTC
Sikt: 4000 m
Brutna moln på en höjd av 900 ft
lätt snö

TAF: EFVA 170836Z 1709/1809 11009KT CAVOK TEMPO 1715/1724 6000 -SN TEMPO 1800/1809 4000 -SN BKN009

Aktuella väderrapporter och prognoser från 4000 flygplatser (METAR- och TAF-rapporter).

De tillgängliga stationerna syns som gula och röda prickar på kartan.

För musen över prickarna för att se namnen på stationerna.

Klicka sedan för att få väderrapporter och prognoser.

För att ändra kartan: Klicka på de gröna knapparna med ett svart kors på för att zooma in; den gröna knappen med ett streck på för att zooma ut; eller på de gröna pilarna för angränsande kartor.


METAR-TAF: